Time;durP1;ratioP1;P1;durP2;ratioP2;P2;SDS_P1;SDS_P2;PMS_P1;PMS_P2;Temp;Humidity;BMP_temperature;BMP_pressure;BME280_temperature;BME280_humidity;BME280_pressure;Samples;Min_cycle;Max_cycle;Signal;HPM_P1;HPM_P2
2022/03/27 00:01:13;;;;;;;17.45;12.77;;;;;;;;;;5096439;28;20200;-70
2022/03/27 00:03:40;;;;;;;15.65;11.73;;;;;;;;;;5096489;28;20201;-70
2022/03/27 00:06:07;;;;;;;16.13;14.05;;;;;;;;;;5096471;28;20547;-70
2022/03/27 00:08:35;;;;;;;20.48;13.43;;;;;;;;;;5095992;28;20677;-70
2022/03/27 00:13:49;;;;;;;16.60;13.35;;;;;;;;;;5096511;28;20182;-70
2022/03/27 00:16:16;;;;;;;22.98;14.95;;;;;;;;;;5096217;28;20196;-70
2022/03/27 00:18:43;;;;;;;16.20;14.10;;;;;;;;;;5096247;28;20190;-70
2022/03/27 00:21:10;;;;;;;20.10;14.60;;;;;;;;;;5096101;28;20196;-69
2022/03/27 00:23:38;;;;;;;19.40;14.45;;;;;;;;;;5095995;28;20277;-69
2022/03/27 00:26:06;;;;;;;18.02;14.30;;;;;;;;;;5095526;28;20227;-69
2022/03/27 00:28:33;;;;;;;18.90;14.05;;;;;;;;;;5095986;28;20564;-70
2022/03/27 00:31:01;;;;;;;21.45;14.82;;;;;;;;;;5096032;28;20291;-70
2022/03/27 00:33:28;;;;;;;24.70;15.27;;;;;;;;;;5096282;28;20204;-70
2022/03/27 00:35:55;;;;;;;17.02;13.63;;;;;;;;;;5096116;28;20210;-69
2022/03/27 00:38:22;;;;;;;23.38;15.60;;;;;;;;;;5096237;28;20540;-70
2022/03/27 00:40:50;;;;;;;19.48;15.18;;;;;;;;;;5096383;28;20228;-70
2022/03/27 00:43:19;;;;;;;19.85;15.23;;;;;;;;;;5095790;28;20247;-70
2022/03/27 00:45:47;;;;;;;21.83;15.20;;;;;;;;;;5095632;28;20231;-69
2022/03/27 00:48:14;;;;;;;20.20;14.88;;;;;;;;;;5095575;28;20223;-70
2022/03/27 00:50:41;;;;;;;16.98;15.00;;;;;;;;;;5095740;28;20284;-70
2022/03/27 00:53:09;;;;;;;17.23;15.43;;;;;;;;;;5095549;28;20582;-70
2022/03/27 00:55:36;;;;;;;19.38;15.57;;;;;;;;;;5095051;28;20203;-70
2022/03/27 00:58:03;;;;;;;16.98;15.23;;;;;;;;;;5095241;28;20227;-70
2022/03/27 01:00:49;;;;;;;20.70;16.20;;;;;;;;;;5094158;28;20198;-69
2022/03/27 01:03:17;;;;;;;17.23;14.88;;;;;;;;;;5095468;28;20190;-70
2022/03/27 01:05:45;;;;;;;17.77;15.18;;;;;;;;;;5094933;28;20203;-70
2022/03/27 01:08:13;;;;;;;18.60;15.63;;;;;;;;;;5094991;28;20227;-70
2022/03/27 01:10:40;;;;;;;17.35;15.35;;;;;;;;;;5095080;28;20649;-70
2022/03/27 01:13:12;;;;;;;13.40;12.10;;;;;;;;;;5094667;28;20225;-70
2022/03/27 01:15:41;;;;;;;19.35;15.52;;;;;;;;;;5095334;28;20184;-70
2022/03/27 01:18:10;;;;;;;17.45;15.25;;;;;;;;;;5095138;28;20198;-70
2022/03/27 01:20:40;;;;;;;18.35;15.23;;;;;;;;;;5094881;28;20290;-70
2022/03/27 01:23:09;;;;;;;17.00;14.15;;;;;;;;;;5094488;28;20180;-69
2022/03/27 01:25:37;;;;;;;20.95;17.35;;;;;;;;;;5095047;28;20203;-70
2022/03/27 01:28:04;;;;;;;21.90;17.98;;;;;;;;;;5094740;28;20228;-70
2022/03/27 01:30:32;;;;;;;25.08;17.95;;;;;;;;;;5094798;28;20195;-70
2022/03/27 01:32:59;;;;;;;23.83;17.55;;;;;;;;;;5094297;28;20198;-70
2022/03/27 01:35:27;;;;;;;20.10;17.10;;;;;;;;;;5094312;28;20194;-70
2022/03/27 01:37:55;;;;;;;23.45;19.27;;;;;;;;;;5094208;28;20295;-70
2022/03/27 01:40:23;;;;;;;20.98;17.65;;;;;;;;;;5094360;28;20202;-70
2022/03/27 01:42:53;;;;;;;21.60;17.17;;;;;;;;;;5094192;28;20204;-71
2022/03/27 01:45:21;;;;;;;27.33;18.80;;;;;;;;;;5094315;28;20226;-70
2022/03/27 01:47:48;;;;;;;23.63;18.40;;;;;;;;;;5093964;28;20236;-69
2022/03/27 01:50:15;;;;;;;22.80;17.65;;;;;;;;;;5094108;28;20318;-70
2022/03/27 01:52:43;;;;;;;20.52;16.48;;;;;;;;;;5094343;28;20555;-70
2022/03/27 01:55:13;;;;;;;25.05;18.70;;;;;;;;;;5094357;28;20554;-70
2022/03/27 01:57:42;;;;;;;21.55;16.50;;;;;;;;;;5094342;28;20249;-70
2022/03/27 02:00:11;;;;;;;18.40;16.33;;;;;;;;;;5094306;28;20273;-70
2022/03/27 02:02:39;;;;;;;23.25;17.40;;;;;;;;;;5093878;28;20613;-70
2022/03/27 02:05:06;;;;;;;20.80;16.75;;;;;;;;;;5093794;28;20197;-70
2022/03/27 02:07:37;;;;;;;24.73;19.00;;;;;;;;;;5094209;28;20216;-70
2022/03/27 02:10:04;;;;;;;21.10;16.95;;;;;;;;;;5093897;28;20586;-70
2022/03/27 02:12:34;;;;;;;25.30;18.40;;;;;;;;;;5093697;28;20202;-70
2022/03/27 02:15:01;;;;;;;21.70;17.05;;;;;;;;;;5094280;28;20645;-69
2022/03/27 02:17:28;;;;;;;22.58;16.25;;;;;;;;;;5093883;28;20560;-69
2022/03/27 02:19:55;;;;;;;22.25;16.25;;;;;;;;;;5094065;28;20199;-69
2022/03/27 02:22:22;;;;;;;20.00;15.00;;;;;;;;;;5093540;28;20291;-69
2022/03/27 02:24:50;;;;;;;19.25;15.05;;;;;;;;;;5094204;28;20305;-69
2022/03/27 02:27:17;;;;;;;19.17;15.13;;;;;;;;;;5093663;28;20223;-69
2022/03/27 02:29:46;;;;;;;22.67;17.80;;;;;;;;;;5094631;28;20217;-69
2022/03/27 02:32:14;;;;;;;23.50;18.92;;;;;;;;;;5093746;28;20195;-69
2022/03/27 02:34:41;;;;;;;20.20;15.60;;;;;;;;;;5093779;28;20246;-70
2022/03/27 02:37:09;;;;;;;21.63;15.52;;;;;;;;;;5093618;28;20211;-69
2022/03/27 02:39:36;;;;;;;18.95;15.30;;;;;;;;;;5093695;28;20201;-69
2022/03/27 02:42:03;;;;;;;20.52;14.70;;;;;;;;;;5094211;28;20235;-69
2022/03/27 02:44:30;;;;;;;18.75;15.35;;;;;;;;;;5093413;28;20235;-69
2022/03/27 02:47:00;;;;;;;18.70;16.67;;;;;;;;;;5093786;28;20245;-69
2022/03/27 02:49:27;;;;;;;18.40;15.38;;;;;;;;;;5093515;28;20212;-69
2022/03/27 02:51:54;;;;;;;24.15;17.33;;;;;;;;;;5093476;28;20232;-69
2022/03/27 02:54:21;;;;;;;18.40;16.58;;;;;;;;;;5093750;28;20195;-69
2022/03/27 02:56:48;;;;;;;24.15;17.30;;;;;;;;;;5093232;28;20199;-69
2022/03/27 02:59:16;;;;;;;20.77;16.20;;;;;;;;;;5093220;28;20195;-69
2022/03/27 03:01:43;;;;;;;22.25;15.85;;;;;;;;;;5094145;28;20229;-69
2022/03/27 03:04:13;;;;;;;18.27;15.68;;;;;;;;;;5093531;28;20593;-69
2022/03/27 03:06:42;;;;;;;22.58;16.13;;;;;;;;;;5093440;28;20260;-69
2022/03/27 03:09:10;;;;;;;22.20;16.85;;;;;;;;;;5093195;28;20219;-69
2022/03/27 03:11:37;;;;;;;17.23;15.13;;;;;;;;;;5093502;28;20192;-70
2022/03/27 03:14:04;;;;;;;19.73;16.23;;;;;;;;;;5093271;28;20286;-69
2022/03/27 03:16:32;;;;;;;19.77;15.23;;;;;;;;;;5093156;28;20207;-69
2022/03/27 03:18:59;;;;;;;22.25;16.85;;;;;;;;;;5093226;28;20203;-69
2022/03/27 03:21:28;;;;;;;21.60;17.48;;;;;;;;;;5093308;28;20209;-69
2022/03/27 03:23:55;;;;;;;20.13;16.70;;;;;;;;;;5096675;28;20196;-69
2022/03/27 03:26:23;;;;;;;20.95;17.13;;;;;;;;;;5097991;28;20194;-69
2022/03/27 03:28:50;;;;;;;23.27;17.73;;;;;;;;;;5097302;28;20306;-69
2022/03/27 03:31:17;;;;;;;22.92;17.85;;;;;;;;;;5097106;28;20205;-69
2022/03/27 03:33:44;;;;;;;22.88;15.98;;;;;;;;;;5096927;28;20286;-70
2022/03/27 03:36:12;;;;;;;24.13;16.85;;;;;;;;;;5096735;28;20193;-70
2022/03/27 03:38:40;;;;;;;25.52;17.13;;;;;;;;;;5097302;28;20286;-70
2022/03/27 03:41:08;;;;;;;21.40;16.52;;;;;;;;;;5097011;28;20556;-69
2022/03/27 03:43:36;;;;;;;28.88;17.27;;;;;;;;;;5096728;28;20290;-71
2022/03/27 03:46:03;;;;;;;25.67;18.08;;;;;;;;;;5096971;28;20223;-70
2022/03/27 03:48:31;;;;;;;19.00;15.57;;;;;;;;;;5096352;28;20219;-70
2022/03/27 03:50:58;;;;;;;22.63;17.30;;;;;;;;;;5096672;28;20194;-70
2022/03/27 03:53:26;;;;;;;20.63;15.30;;;;;;;;;;5096815;28;20385;-69
2022/03/27 03:55:55;;;;;;;23.88;17.38;;;;;;;;;;5096317;28;20195;-70
2022/03/27 03:58:22;;;;;;;21.98;16.70;;;;;;;;;;5096149;28;20292;-69
2022/03/27 04:00:50;;;;;;;19.42;15.30;;;;;;;;;;5096773;28;20218;-69
2022/03/27 04:03:18;;;;;;;21.20;16.40;;;;;;;;;;5096119;28;20194;-70
2022/03/27 04:05:45;;;;;;;23.38;16.35;;;;;;;;;;5097042;28;20556;-69
2022/03/27 04:08:14;;;;;;;24.58;17.20;;;;;;;;;;5096164;28;20228;-69
2022/03/27 04:10:42;;;;;;;26.20;17.52;;;;;;;;;;5095995;28;20208;-70
2022/03/27 04:13:11;;;;;;;25.23;19.73;;;;;;;;;;5096260;28;20195;-68
2022/03/27 04:15:38;;;;;;;23.52;17.35;;;;;;;;;;5096120;28;20283;-69
2022/03/27 04:18:06;;;;;;;27.95;18.58;;;;;;;;;;5095637;28;20205;-69
2022/03/27 04:20:34;;;;;;;23.42;18.40;;;;;;;;;;5095263;28;20201;-68
2022/03/27 04:23:02;;;;;;;25.98;18.33;;;;;;;;;;5095420;28;20195;-69
2022/03/27 04:25:29;;;;;;;30.52;22.00;;;;;;;;;;5095132;28;20203;-69
2022/03/27 04:27:57;;;;;;;33.47;22.15;;;;;;;;;;5095753;28;20222;-69
2022/03/27 04:30:26;;;;;;;31.73;19.90;;;;;;;;;;5095153;28;20215;-69
2022/03/27 04:32:54;;;;;;;32.90;20.92;;;;;;;;;;5095816;28;20288;-69
2022/03/27 04:35:21;;;;;;;29.83;21.35;;;;;;;;;;5095500;28;20285;-69
2022/03/27 04:37:48;;;;;;;32.40;20.48;;;;;;;;;;5095134;28;20198;-68
2022/03/27 04:40:16;;;;;;;26.80;19.13;;;;;;;;;;5095513;28;20685;-68
2022/03/27 04:42:43;;;;;;;31.70;20.55;;;;;;;;;;5094515;28;20198;-69
2022/03/27 04:45:11;;;;;;;29.13;19.98;;;;;;;;;;5095046;28;20231;-69
2022/03/27 04:47:40;;;;;;;31.88;21.45;;;;;;;;;;5095380;28;20226;-68
2022/03/27 04:50:08;;;;;;;29.63;21.13;;;;;;;;;;5094286;28;20274;-69
2022/03/27 04:52:35;;;;;;;34.15;21.65;;;;;;;;;;5095671;28;20240;-69
2022/03/27 04:55:03;;;;;;;32.72;22.17;;;;;;;;;;5094612;28;20197;-68
2022/03/27 04:57:33;;;;;;;31.95;20.55;;;;;;;;;;5095159;28;20200;-68
2022/03/27 05:00:00;;;;;;;31.60;20.95;;;;;;;;;;5094994;28;20191;-68
2022/03/27 05:02:28;;;;;;;37.47;22.73;;;;;;;;;;5095424;28;20195;-68
2022/03/27 05:04:57;;;;;;;37.70;23.58;;;;;;;;;;5095202;28;20611;-70
2022/03/27 05:07:24;;;;;;;35.78;22.17;;;;;;;;;;5095126;28;20202;-69
2022/03/27 05:09:51;;;;;;;41.38;23.15;;;;;;;;;;5094770;28;20215;-68
2022/03/27 05:12:19;;;;;;;33.90;22.55;;;;;;;;;;5095673;28;20316;-69
2022/03/27 05:14:46;;;;;;;36.38;22.95;;;;;;;;;;5094003;28;20205;-69
2022/03/27 05:17:13;;;;;;;31.30;20.40;;;;;;;;;;5094446;28;20202;-69
2022/03/27 05:19:41;;;;;;;32.92;20.73;;;;;;;;;;5094407;28;20638;-70
2022/03/27 05:22:09;;;;;;;37.50;23.65;;;;;;;;;;5094625;28;20207;-69
2022/03/27 05:24:36;;;;;;;33.92;21.27;;;;;;;;;;5094596;28;20203;-69
2022/03/27 05:27:04;;;;;;;37.38;22.27;;;;;;;;;;5094670;28;20198;-69
2022/03/27 05:29:31;;;;;;;32.03;21.80;;;;;;;;;;5094560;28;20307;-69
2022/03/27 05:31:58;;;;;;;37.33;21.52;;;;;;;;;;5095166;28;20197;-69
2022/03/27 05:34:26;;;;;;;28.83;19.98;;;;;;;;;;5093271;28;20212;-70
2022/03/27 05:36:53;;;;;;;28.60;20.77;;;;;;;;;;5093598;28;20205;-69
2022/03/27 05:39:21;;;;;;;29.63;20.38;;;;;;;;;;5094017;28;20203;-69
2022/03/27 05:41:49;;;;;;;29.92;19.90;;;;;;;;;;5094555;28;20199;-69
2022/03/27 05:44:16;;;;;;;31.63;20.92;;;;;;;;;;5094600;28;20202;-69
2022/03/27 05:46:43;;;;;;;29.50;21.10;;;;;;;;;;5093718;28;20202;-69
2022/03/27 05:49:10;;;;;;;32.00;19.98;;;;;;;;;;5094442;28;20221;-69
2022/03/27 05:51:37;;;;;;;30.00;19.40;;;;;;;;;;5094340;28;20200;-69
2022/03/27 05:54:04;;;;;;;25.75;19.55;;;;;;;;;;5094813;28;20280;-69
2022/03/27 05:56:34;;;;;;;27.50;18.70;;;;;;;;;;5093231;28;20202;-69
2022/03/27 05:59:01;;;;;;;25.08;18.63;;;;;;;;;;5093827;28;20199;-69
2022/03/27 06:01:28;;;;;;;22.55;17.85;;;;;;;;;;5094047;28;20195;-69
2022/03/27 06:03:55;;;;;;;29.25;18.58;;;;;;;;;;5093858;28;20197;-69
2022/03/27 06:06:22;;;;;;;27.30;18.60;;;;;;;;;;5094045;28;20668;-70
2022/03/27 06:08:50;;;;;;;26.33;18.02;;;;;;;;;;5094285;28;20215;-69
2022/03/27 06:11:17;;;;;;;25.58;17.17;;;;;;;;;;5093658;28;20202;-70
2022/03/27 06:13:45;;;;;;;23.48;17.58;;;;;;;;;;5094557;28;20216;-69
2022/03/27 06:16:12;;;;;;;25.08;17.80;;;;;;;;;;5092928;28;20198;-69
2022/03/27 06:18:40;;;;;;;26.30;18.83;;;;;;;;;;5093969;28;20207;-69
2022/03/27 06:21:08;;;;;;;24.77;18.73;;;;;;;;;;5093690;28;20195;-71
2022/03/27 06:23:35;;;;;;;23.25;16.52;;;;;;;;;;5093833;28;20681;-69
2022/03/27 06:26:03;;;;;;;23.92;17.35;;;;;;;;;;5093579;28;20193;-69
2022/03/27 06:28:31;;;;;;;23.98;16.55;;;;;;;;;;5094061;28;20210;-69
2022/03/27 06:30:59;;;;;;;25.50;17.58;;;;;;;;;;5094034;28;20191;-69
2022/03/27 06:33:26;;;;;;;27.27;17.35;;;;;;;;;;5093694;28;20208;-70
2022/03/27 06:35:54;;;;;;;24.30;16.67;;;;;;;;;;5092524;28;20221;-69
2022/03/27 06:38:21;;;;;;;22.90;16.65;;;;;;;;;;5093149;28;20289;-69
2022/03/27 06:40:48;;;;;;;21.30;15.43;;;;;;;;;;5093060;28;20199;-69
2022/03/27 06:43:15;;;;;;;27.20;17.35;;;;;;;;;;5093982;28;20201;-69
2022/03/27 06:45:43;;;;;;;23.85;16.50;;;;;;;;;;5093521;28;20233;-69
2022/03/27 06:48:11;;;;;;;23.63;15.80;;;;;;;;;;5093733;28;20205;-70
2022/03/27 06:50:38;;;;;;;21.83;15.52;;;;;;;;;;5093986;28;20551;-70
2022/03/27 06:53:07;;;;;;;22.90;15.77;;;;;;;;;;5093379;28;20319;-69
2022/03/27 06:55:34;;;;;;;21.88;16.15;;;;;;;;;;5092594;28;20195;-69
2022/03/27 06:58:01;;;;;;;26.30;16.75;;;;;;;;;;5094993;28;20194;-69
2022/03/27 07:03:14;;;;;;;21.92;16.45;;;;;;;;;;5097545;28;20228;-70
2022/03/27 07:05:43;;;;;;;18.90;14.40;;;;;;;;;;5097730;28;20222;-69
2022/03/27 07:08:11;;;;;;;23.35;16.15;;;;;;;;;;5097279;28;20667;-69
2022/03/27 07:10:38;;;;;;;23.23;16.75;;;;;;;;;;5097227;28;20289;-69
2022/03/27 07:13:07;;;;;;;22.98;17.80;;;;;;;;;;5097450;28;20199;-69
2022/03/27 07:15:35;;;;;;;23.92;17.50;;;;;;;;;;5096416;28;20291;-69
2022/03/27 07:18:02;;;;;;;23.00;17.55;;;;;;;;;;5097243;28;20201;-70
2022/03/27 07:20:32;;;;;;;25.52;18.40;;;;;;;;;;5096747;28;20203;-69
2022/03/27 07:23:00;;;;;;;24.52;18.63;;;;;;;;;;5097175;28;20195;-70
2022/03/27 07:25:29;;;;;;;22.70;17.33;;;;;;;;;;5097118;28;20200;-69
2022/03/27 07:27:56;;;;;;;24.27;17.85;;;;;;;;;;5096863;28;20292;-69
2022/03/27 07:30:24;;;;;;;24.52;18.27;;;;;;;;;;5097365;28;20218;-69
2022/03/27 07:32:53;;;;;;;23.13;17.05;;;;;;;;;;5096994;28;20192;-69
2022/03/27 07:35:20;;;;;;;22.83;16.30;;;;;;;;;;5096568;28;20556;-69
2022/03/27 07:37:51;;;;;;;21.88;16.50;;;;;;;;;;5095856;28;20718;-70
2022/03/27 07:40:20;;;;;;;21.90;15.25;;;;;;;;;;5096599;28;20248;-69
2022/03/27 07:42:50;;;;;;;26.48;17.55;;;;;;;;;;5097384;28;20205;-69
2022/03/27 07:45:18;;;;;;;29.30;19.35;;;;;;;;;;5097715;28;20240;-68
2022/03/27 07:47:45;;;;;;;27.88;17.38;;;;;;;;;;5096341;28;20215;-69
2022/03/27 07:50:13;;;;;;;26.33;16.92;;;;;;;;;;5096751;28;20642;-69
2022/03/27 07:52:40;;;;;;;28.02;17.67;;;;;;;;;;5096715;28;20192;-68
2022/03/27 07:55:11;;;;;;;24.40;17.67;;;;;;;;;;5096486;28;20202;-69
2022/03/27 07:57:38;;;;;;;23.25;16.67;;;;;;;;;;5095721;28;20566;-69
2022/03/27 08:00:08;;;;;;;23.50;16.25;;;;;;;;;;5096405;28;20193;-69
2022/03/27 08:02:35;;;;;;;26.27;17.00;;;;;;;;;;5096908;28;20195;-69
2022/03/27 08:05:03;;;;;;;22.35;16.33;;;;;;;;;;5096590;28;20195;-68
2022/03/27 08:07:31;;;;;;;22.60;15.02;;;;;;;;;;5095837;28;20197;-69
2022/03/27 08:09:58;;;;;;;25.17;16.30;;;;;;;;;;5095408;28;20218;-69
2022/03/27 08:12:27;;;;;;;22.80;14.80;;;;;;;;;;5096212;28;20781;-68
2022/03/27 08:14:54;;;;;;;21.15;14.65;;;;;;;;;;5096159;28;20195;-69
2022/03/27 08:17:21;;;;;;;22.80;16.27;;;;;;;;;;5094852;28;20198;-69
2022/03/27 08:19:49;;;;;;;24.10;16.90;;;;;;;;;;5095887;28;20207;-69
2022/03/27 08:22:19;;;;;;;21.77;16.25;;;;;;;;;;5095457;28;20227;-69
2022/03/27 08:24:46;;;;;;;21.13;16.20;;;;;;;;;;5095455;28;20209;-69
2022/03/27 08:27:13;;;;;;;21.00;15.38;;;;;;;;;;5095794;28;20199;-69
2022/03/27 08:29:43;;;;;;;20.65;15.82;;;;;;;;;;5095535;28;20248;-69
2022/03/27 08:32:12;;;;;;;21.80;16.27;;;;;;;;;;5095550;28;20241;-69
2022/03/27 08:34:40;;;;;;;20.85;15.20;;;;;;;;;;5095251;28;20245;-69
2022/03/27 08:37:08;;;;;;;21.23;14.85;;;;;;;;;;5094467;28;20802;-69
2022/03/27 08:39:35;;;;;;;16.13;12.88;;;;;;;;;;5095383;28;20207;-69
2022/03/27 08:42:03;;;;;;;18.73;14.77;;;;;;;;;;5095599;28;20238;-69
2022/03/27 08:44:30;;;;;;;20.50;15.38;;;;;;;;;;5095271;28;20675;-69
2022/03/27 08:47:00;;;;;;;21.00;14.77;;;;;;;;;;5096032;28;20215;-69
2022/03/27 08:49:35;;;;;;;19.88;14.05;;;;;;;;;;5095635;28;20319;-68
2022/03/27 08:52:05;;;;;;;19.67;14.15;;;;;;;;;;5095699;28;20183;-69
2022/03/27 08:54:36;;;;;;;18.55;14.10;;;;;;;;;;5095907;28;20538;-69
2022/03/27 08:57:08;;;;;;;15.40;12.18;;;;;;;;;;5095463;28;20185;-69
2022/03/27 08:59:37;;;;;;;16.75;13.27;;;;;;;;;;5095643;28;20279;-68
2022/03/27 09:02:05;;;;;;;17.25;12.48;;;;;;;;;;5095291;28;20242;-69
2022/03/27 09:04:33;;;;;;;16.52;11.93;;;;;;;;;;5095529;28;20299;-69
2022/03/27 09:07:02;;;;;;;20.17;14.00;;;;;;;;;;5095291;28;20191;-69
2022/03/27 09:09:33;;;;;;;16.52;11.63;;;;;;;;;;5095990;28;20220;-69
2022/03/27 09:12:02;;;;;;;15.07;10.90;;;;;;;;;;5095281;28;20732;-68
2022/03/27 09:14:29;;;;;;;14.27;11.60;;;;;;;;;;5095113;28;20246;-69
2022/03/27 09:17:03;;;;;;;16.23;12.43;;;;;;;;;;5095486;28;20195;-69
2022/03/27 09:19:36;;;;;;;14.82;11.57;;;;;;;;;;5094371;28;20202;-69
2022/03/27 09:22:13;;;;;;;18.83;13.10;;;;;;;;;;5094802;28;20192;-68
2022/03/27 09:24:41;;;;;;;17.08;12.80;;;;;;;;;;5095133;28;20188;-69
2022/03/27 09:27:08;;;;;;;13.30;11.15;;;;;;;;;;5095123;28;20197;-69
2022/03/27 09:29:50;;;;;;;16.75;13.15;;;;;;;;;;5094435;28;20708;-69
2022/03/27 09:32:26;;;;;;;16.98;12.82;;;;;;;;;;5093618;28;20201;-69
2022/03/27 09:35:01;;;;;;;14.93;11.15;;;;;;;;;;5093476;28;20201;-68
2022/03/27 09:37:29;;;;;;;16.50;13.18;;;;;;;;;;5094020;28;20206;-69
2022/03/27 09:39:57;;;;;;;15.43;12.40;;;;;;;;;;5094386;28;20199;-69
2022/03/27 09:42:24;;;;;;;16.08;12.20;;;;;;;;;;5094536;28;20196;-68
2022/03/27 09:45:09;;;;;;;16.90;13.20;;;;;;;;;;5094376;28;20232;-68
2022/03/27 09:47:37;;;;;;;19.38;14.20;;;;;;;;;;5094015;28;20639;-69
2022/03/27 09:50:06;;;;;;;25.13;12.63;;;;;;;;;;5094696;28;20217;-68
2022/03/27 09:52:34;;;;;;;18.38;14.27;;;;;;;;;;5094026;28;20189;-69
2022/03/27 09:55:03;;;;;;;15.60;11.50;;;;;;;;;;5093265;28;20198;-68
2022/03/27 09:57:31;;;;;;;14.02;11.95;;;;;;;;;;5093908;28;20203;-68
2022/03/27 09:59:59;;;;;;;13.27;10.50;;;;;;;;;;5094048;28;20605;-68
2022/03/27 10:02:27;;;;;;;13.63;10.40;;;;;;;;;;5093914;28;20435;-68
2022/03/27 10:04:56;;;;;;;21.65;15.40;;;;;;;;;;5093960;28;20446;-68
2022/03/27 10:07:25;;;;;;;16.30;11.35;;;;;;;;;;5093918;28;20227;-68
2022/03/27 10:09:53;;;;;;;15.10;11.80;;;;;;;;;;5093517;28;20708;-68
2022/03/27 10:12:25;;;;;;;15.70;9.10;;;;;;;;;;5093224;28;20470;-69
2022/03/27 10:14:52;;;;;;;13.20;10.67;;;;;;;;;;5092931;28;20195;-69
2022/03/27 10:17:20;;;;;;;14.10;12.60;;;;;;;;;;5093136;28;20547;-68
2022/03/27 10:19:51;;;;;;;16.57;11.67;;;;;;;;;;5093457;28;20205;-68
2022/03/27 10:22:21;;;;;;;14.48;11.00;;;;;;;;;;5094100;28;20789;-68
2022/03/27 10:24:51;;;;;;;14.57;9.90;;;;;;;;;;5093657;28;20343;-68
2022/03/27 10:27:20;;;;;;;15.48;11.13;;;;;;;;;;5093533;28;20197;-69
2022/03/27 10:29:48;;;;;;;15.95;11.20;;;;;;;;;;5093265;28;20304;-69
2022/03/27 10:32:16;;;;;;;12.65;9.57;;;;;;;;;;5093266;28;20193;-68
2022/03/27 10:34:48;;;;;;;14.35;10.90;;;;;;;;;;5092820;28;20272;-71
2022/03/27 10:37:19;;;;;;;11.73;9.52;;;;;;;;;;5093082;28;20197;-69
2022/03/27 10:39:52;;;;;;;14.32;9.65;;;;;;;;;;5093321;28;20292;-69
2022/03/27 10:42:26;;;;;;;12.98;9.65;;;;;;;;;;5094205;28;20181;-71
2022/03/27 10:44:55;;;;;;;12.23;9.45;;;;;;;;;;5093768;28;20570;-67
2022/03/27 10:47:23;;;;;;;12.43;9.82;;;;;;;;;;5093832;28;20198;-68
2022/03/27 10:50:09;;;;;;;14.50;10.68;;;;;;;;;;5093347;28;20213;-68
2022/03/27 10:52:37;;;;;;;11.63;10.13;;;;;;;;;;5093257;28;20501;-68
2022/03/27 10:55:08;;;;;;;12.70;10.53;;;;;;;;;;5092610;28;20209;-68
2022/03/27 10:57:37;;;;;;;14.90;11.23;;;;;;;;;;5092985;28;20431;-67
2022/03/27 11:00:06;;;;;;;13.97;11.50;;;;;;;;;;5093124;28;20920;-68
2022/03/27 11:02:43;;;;;;;19.93;12.63;;;;;;;;;;5092989;28;20450;-68
2022/03/27 11:05:16;;;;;;;15.30;10.60;;;;;;;;;;5092933;28;20493;-68
2022/03/27 11:07:43;;;;;;;16.23;11.63;;;;;;;;;;5093665;28;20428;-67
2022/03/27 11:10:34;;;;;;;12.63;10.57;;;;;;;;;;5093160;28;20483;-67
2022/03/27 11:13:36;;;;;;;15.43;10.17;;;;;;;;;;5092681;28;20538;-68
2022/03/27 11:16:04;;;;;;;11.50;10.17;;;;;;;;;;5092360;28;20447;-68
2022/03/27 11:18:36;;;;;;;14.60;11.30;;;;;;;;;;5093254;28;20791;-67
2022/03/27 11:21:03;;;;;;;13.60;11.43;;;;;;;;;;5093031;28;20436;-67
2022/03/27 11:23:32;;;;;;;12.57;10.97;;;;;;;;;;5093023;28;20448;-67
2022/03/27 11:26:00;;;;;;;14.77;11.23;;;;;;;;;;5092860;28;20446;-67
2022/03/27 11:28:44;;;;;;;12.20;10.17;;;;;;;;;;5092829;28;20435;-67
2022/03/27 11:31:23;;;;;;;17.50;11.40;;;;;;;;;;5092783;28;20467;-67
2022/03/27 11:34:08;;;;;;;12.50;9.90;;;;;;;;;;5092349;28;20511;-68
2022/03/27 11:36:36;;;;;;;16.30;10.20;;;;;;;;;;5092475;28;20443;-66
2022/03/27 11:39:07;;;;;;;15.97;9.67;;;;;;;;;;5092616;28;20450;-68
2022/03/27 11:41:38;;;;;;;13.20;10.07;;;;;;;;;;5092632;28;20440;-67
2022/03/27 11:47:08;;;;;;;14.60;10.50;;;;;;;;;;5095809;28;20458;-67
2022/03/27 11:49:37;;;;;;;12.93;9.70;;;;;;;;;;5096466;28;20514;-68
2022/03/27 11:52:05;;;;;;;11.03;9.13;;;;;;;;;;5096589;28;20485;-67
2022/03/27 11:54:33;;;;;;;12.70;10.03;;;;;;;;;;5095513;28;20525;-68
2022/03/27 11:57:02;;;;;;;12.80;9.60;;;;;;;;;;5095963;28;20463;-68
2022/03/27 11:59:31;;;;;;;12.60;9.87;;;;;;;;;;5095702;28;20440;-67
2022/03/27 12:01:59;;;;;;;13.13;10.03;;;;;;;;;;5096540;28;20509;-67
2022/03/27 12:04:27;;;;;;;11.60;9.50;;;;;;;;;;5096521;28;20493;-67
2022/03/27 12:06:56;;;;;;;12.37;9.50;;;;;;;;;;5095876;28;20518;-68
2022/03/27 12:09:32;;;;;;;9.93;8.40;;;;;;;;;;5096244;28;20435;-67
2022/03/27 12:12:08;;;;;;;12.73;9.10;;;;;;;;;;5095855;28;20552;-66
2022/03/27 12:14:50;;;;;;;14.43;11.40;;;;;;;;;;5095311;28;20477;-66
2022/03/27 12:17:19;;;;;;;14.50;11.37;;;;;;;;;;5095581;28;20997;-66
2022/03/27 12:20:01;;;;;;;14.97;11.43;;;;;;;;;;5095577;28;20538;-67
2022/03/27 12:22:41;;;;;;;15.53;11.53;;;;;;;;;;5094098;28;20534;-67
2022/03/27 12:25:10;;;;;;;15.40;10.83;;;;;;;;;;5094835;28;20934;-67
2022/03/27 12:30:35;;;;;;;15.83;10.37;;;;;;;;;;5070536;28;20463;-66
2022/03/27 12:33:04;;;;;;;15.27;10.47;;;;;;;;;;5094968;28;20484;-67
2022/03/27 12:35:32;;;;;;;16.93;10.87;;;;;;;;;;5094683;28;20440;-67
2022/03/27 12:37:59;;;;;;;16.27;12.87;;;;;;;;;;5095548;28;20449;-66
2022/03/27 12:40:28;;;;;;;17.53;11.63;;;;;;;;;;5095459;28;20454;-67
2022/03/27 12:42:55;;;;;;;19.57;12.17;;;;;;;;;;5095608;28;20444;-67
2022/03/27 12:45:32;;;;;;;19.60;13.47;;;;;;;;;;5095275;28;20827;-67
2022/03/27 12:48:00;;;;;;;19.07;13.23;;;;;;;;;;5095767;28;20455;-67
2022/03/27 12:50:33;;;;;;;19.63;13.77;;;;;;;;;;5094640;28;20467;-69
2022/03/27 12:53:01;;;;;;;18.37;13.10;;;;;;;;;;5095370;28;20483;-69
2022/03/27 12:55:29;;;;;;;18.80;11.93;;;;;;;;;;5094325;28;20446;-69
2022/03/27 12:57:58;;;;;;;20.30;12.73;;;;;;;;;;5094838;28;20531;-67
2022/03/27 13:00:26;;;;;;;17.73;12.87;;;;;;;;;;5094929;28;20466;-67
2022/03/27 13:03:16;;;;;;;18.10;13.10;;;;;;;;;;5094869;28;20459;-68
2022/03/27 13:06:02;;;;;;;19.63;14.70;;;;;;;;;;5094750;28;20435;-67
2022/03/27 13:08:30;;;;;;;18.07;12.73;;;;;;;;;;5095029;28;20452;-68
2022/03/27 13:10:58;;;;;;;18.70;13.30;;;;;;;;;;5094693;28;20479;-68
2022/03/27 13:13:32;;;;;;;21.23;13.90;;;;;;;;;;5094462;28;20451;-66
2022/03/27 13:16:00;;;;;;;16.90;12.73;;;;;;;;;;5094387;28;20941;-66
2022/03/27 13:18:31;;;;;;;17.07;12.47;;;;;;;;;;5094350;28;20440;-66
2022/03/27 13:20:58;;;;;;;15.17;12.07;;;;;;;;;;5094613;28;20882;-69
2022/03/27 13:23:26;;;;;;;19.00;13.40;;;;;;;;;;5094701;28;20988;-66
2022/03/27 13:25:54;;;;;;;20.30;12.77;;;;;;;;;;5094470;28;20443;-68
2022/03/27 13:28:21;;;;;;;17.77;14.63;;;;;;;;;;5094421;28;20446;-67
2022/03/27 13:30:48;;;;;;;21.10;13.30;;;;;;;;;;5094180;28;20511;-67
2022/03/27 13:33:15;;;;;;;19.97;13.63;;;;;;;;;;5094696;28;20740;-68
2022/03/27 13:35:46;;;;;;;19.37;14.00;;;;;;;;;;5094628;28;20866;-68
2022/03/27 13:38:13;;;;;;;19.67;13.53;;;;;;;;;;5093286;28;20444;-68
2022/03/27 13:43:27;;;;;;;19.93;13.63;;;;;;;;;;5094064;28;20765;-67
2022/03/27 13:45:54;;;;;;;19.53;13.50;;;;;;;;;;5093531;28;20499;-68
2022/03/27 13:48:21;;;;;;;18.80;13.20;;;;;;;;;;5094345;28;20461;-67
2022/03/27 13:50:48;;;;;;;20.23;12.60;;;;;;;;;;5093657;28;20469;-67
2022/03/27 13:53:16;;;;;;;17.97;12.70;;;;;;;;;;5094171;28;20448;-67
2022/03/27 13:55:45;;;;;;;18.70;13.90;;;;;;;;;;5093510;28;20442;-67
2022/03/27 13:58:12;;;;;;;18.57;12.77;;;;;;;;;;5093569;28;20478;-67
2022/03/27 14:00:40;;;;;;;18.03;13.80;;;;;;;;;;5094166;28;20444;-68
2022/03/27 14:03:08;;;;;;;25.90;15.53;;;;;;;;;;5093832;28;20492;-68
2022/03/27 14:05:35;;;;;;;21.17;14.00;;;;;;;;;;5093874;28;20447;-67
2022/03/27 14:08:02;;;;;;;20.97;13.73;;;;;;;;;;5093179;28;20440;-68
2022/03/27 14:10:29;;;;;;;19.00;12.90;;;;;;;;;;5093677;28;20443;-71
2022/03/27 14:12:58;;;;;;;21.13;12.60;;;;;;;;;;5093546;28;20976;-68
2022/03/27 14:15:26;;;;;;;19.73;10.80;;;;;;;;;;5094257;28;20444;-68
2022/03/27 14:17:53;;;;;;;15.90;11.30;;;;;;;;;;5093178;28;20813;-70
2022/03/27 14:20:20;;;;;;;22.00;12.80;;;;;;;;;;5093341;28;20539;-70
2022/03/27 14:22:48;;;;;;;14.17;11.50;;;;;;;;;;5093334;28;20451;-70
2022/03/27 14:25:16;;;;;;;14.60;11.60;;;;;;;;;;5093024;28;20454;-69
2022/03/27 14:27:46;;;;;;;18.80;11.20;;;;;;;;;;5093623;28;20807;-72
2022/03/27 14:30:15;;;;;;;16.30;11.93;;;;;;;;;;5094025;28;20439;-70
2022/03/27 14:32:44;;;;;;;32.27;22.70;;;;;;;;;;5091152;28;20993;-69
2022/03/27 14:35:12;;;;;;;17.97;13.27;;;;;;;;;;5092842;28;20441;-69
2022/03/27 14:37:39;;;;;;;19.63;11.63;;;;;;;;;;5092363;28;20445;-69
2022/03/27 14:40:08;;;;;;;16.20;11.23;;;;;;;;;;5092665;28;20981;-69
2022/03/27 14:42:35;;;;;;;20.37;11.10;;;;;;;;;;5092640;28;20483;-70